Estación de Huelquen
Ultimos registro cada 15 minutos 78
| N° | Estación | Fecha / Hora | Temperatura | Humedad | Lluvia | Velocidad | Dirección | Radiación | Presion |
| 78 | Huelquen | 03-05-2026 19:15 | 16,1 | 68 | 0 | 0 | 221 | 0 | 1016,4 |
| 77 | Huelquen | 03-05-2026 19:00 | 16,6 | 66 | 0 | 0 | 214 | 0 | 1016,4 |
| 76 | Huelquen | 03-05-2026 18:45 | 17 | 66 | 0 | 0 | 207 | 0 | 1016,2 |
| 75 | Huelquen | 03-05-2026 18:30 | 17,8 | 64 | 0 | 0 | 205 | 0 | 1016 |
| 74 | Huelquen | 03-05-2026 18:15 | 18,6 | 61 | 0 | 0 | 219 | 0 | 1016 |
| 73 | Huelquen | 03-05-2026 18:00 | 19,6 | 57 | 0 | 0 | 215 | 7 | 1015,7 |
| 72 | Huelquen | 03-05-2026 17:45 | 20,6 | 53 | 0 | 0 | 229 | 23 | 1015,5 |
| 71 | Huelquen | 03-05-2026 17:30 | 21,7 | 49 | 0 | 0 | 236 | 26 | 1015,3 |
| 70 | Huelquen | 03-05-2026 17:15 | 23,1 | 42 | 0 | 0 | 25 | 32 | 1015 |
| 69 | Huelquen | 03-05-2026 17:00 | 23,4 | 37 | 0 | 0 | 180 | 58 | 1014,9 |
| 68 | Huelquen | 03-05-2026 16:45 | 24,1 | 39 | 0 | 0 | 180 | 102 | 1015 |
| 67 | Huelquen | 03-05-2026 16:30 | 24,7 | 42 | 0 | 0 | 31 | 69 | 1014,9 |
| 66 | Huelquen | 03-05-2026 16:15 | 24,9 | 39 | 0 | 0 | 34 | 102 | 1014,8 |
| 65 | Huelquen | 03-05-2026 16:00 | 25,4 | 38 | 0 | 0 | 179 | 107 | 1014,5 |
| 64 | Huelquen | 03-05-2026 15:45 | 26,2 | 37 | 0 | 0 | 246 | 121 | 1014,3 |
| 63 | Huelquen | 03-05-2026 15:30 | 27,1 | 36 | 0 | 0 | 236 | 276 | 1014,2 |
| 62 | Huelquen | 03-05-2026 15:15 | 27,7 | 33 | 0 | 0 | 264 | 221 | 1014,3 |
| 61 | Huelquen | 03-05-2026 15:00 | 27,7 | 33 | 0 | 0 | 92 | 366 | 1014,3 |
| 60 | Huelquen | 03-05-2026 14:45 | 27,3 | 32 | 0 | 0 | 271 | 272 | 1014,5 |
| 59 | Huelquen | 03-05-2026 14:30 | 27,1 | 33 | 0 | 0 | 269 | 338 | 1014,6 |
| 58 | Huelquen | 03-05-2026 14:15 | 26,9 | 34 | 0 | 0 | 17 | 469 | 1014,8 |
| 57 | Huelquen | 03-05-2026 14:00 | 26,7 | 33 | 0 | 0 | 44 | 471 | 1014,7 |
| 56 | Huelquen | 03-05-2026 13:45 | 26,7 | 34 | 0 | 0 | 183 | 322 | 1014,9 |
| 55 | Huelquen | 03-05-2026 13:30 | 26,3 | 33 | 0 | 0 | 264 | 526 | 1014,9 |
| 54 | Huelquen | 03-05-2026 13:15 | 26 | 34 | 0 | 0 | 266 | 512 | 1014,9 |
| 53 | Huelquen | 03-05-2026 13:00 | 25,8 | 34 | 0 | 0 | 233 | 520 | 1015,1 |
| 52 | Huelquen | 03-05-2026 12:45 | 25,3 | 37 | 0 | 0 | 345 | 522 | 1015,5 |
| 51 | Huelquen | 03-05-2026 12:30 | 24,6 | 39 | 0 | 0 | 263 | 533 | 1015,8 |
| 50 | Huelquen | 03-05-2026 12:15 | 23,7 | 42 | 0 | 0 | 181 | 522 | 1016 |
| 49 | Huelquen | 03-05-2026 12:00 | 23,3 | 42 | 0 | 0 | 58 | 527 | 1016,3 |
| 48 | Huelquen | 03-05-2026 11:45 | 23,1 | 44 | 0 | 0 | 164 | 520 | 1016,6 |
| 47 | Huelquen | 03-05-2026 11:30 | 22,3 | 46 | 0 | 0 | 252 | 496 | 1016,6 |
| 46 | Huelquen | 03-05-2026 11:15 | 21,4 | 49 | 0 | 0 | 309 | 475 | 1016,7 |
| 45 | Huelquen | 03-05-2026 11:00 | 20,6 | 50 | 0 | 0 | 271 | 455 | 1016,9 |
| 44 | Huelquen | 03-05-2026 10:45 | 19,7 | 54 | 0 | 0 | 151 | 432 | 1017,2 |
| 43 | Huelquen | 03-05-2026 10:30 | 19,2 | 55 | 0 | 0 | 153 | 410 | 1017,2 |
| 42 | Huelquen | 03-05-2026 10:15 | 18,1 | 59 | 0 | 0 | 254 | 381 | 1017,5 |
| 41 | Huelquen | 03-05-2026 10:00 | 17,4 | 61 | 0 | 0 | 358 | 355 | 1017,7 |
| 40 | Huelquen | 03-05-2026 09:45 | 16,3 | 66 | 0 | 0 | 326 | 323 | 1017,9 |
| 39 | Huelquen | 03-05-2026 09:30 | 14,4 | 73 | 0 | 0 | 272 | 290 | 1017,6 |
| 38 | Huelquen | 03-05-2026 09:15 | 12,7 | 84 | 0 | 0 | 281 | 257 | 1017,5 |
| 37 | Huelquen | 03-05-2026 09:00 | 11,4 | 88 | 0 | 0 | 273 | 220 | 1017,8 |
| 36 | Huelquen | 03-05-2026 08:45 | 10,4 | 91 | 0 | 0 | 250 | 181 | 1017,9 |
| 35 | Huelquen | 03-05-2026 08:30 | 9,1 | 94 | 0 | 0 | 281 | 144 | 1017,2 |
| 34 | Huelquen | 03-05-2026 08:15 | 7,1 | 92 | 0 | 0 | 241 | 105 | 1016,9 |
| 33 | Huelquen | 03-05-2026 08:00 | 6,1 | 88 | 0 | 0 | 241 | 19 | 1017 |
| 32 | Huelquen | 03-05-2026 07:45 | 6,5 | 88 | 0 | 0 | 241 | 14 | 1016,8 |
| 31 | Huelquen | 03-05-2026 07:30 | 6,1 | 87 | 0 | 0 | 239 | 7 | 1016,3 |
| 30 | Huelquen | 03-05-2026 07:15 | 6,1 | 87 | 0 | 0 | 247 | 0 | 1016 |
| 29 | Huelquen | 03-05-2026 07:00 | 6,2 | 87 | 0 | 0 | 247 | 0 | 1015,6 |
| 28 | Huelquen | 03-05-2026 06:45 | 6 | 87 | 0 | 0 | 222 | 0 | 1015,8 |
| 27 | Huelquen | 03-05-2026 06:30 | 6,1 | 86 | 0 | 0 | 222 | 0 | 1015,7 |
| 26 | Huelquen | 03-05-2026 06:15 | 6,1 | 86 | 0 | 0 | 222 | 0 | 1015,7 |
| 25 | Huelquen | 03-05-2026 06:00 | 6,1 | 86 | 0,2 | 0 | 222 | 0 | 1016,1 |
| 24 | Huelquen | 03-05-2026 05:45 | 6,1 | 86 | 0 | 0 | 221 | 0 | 1015,8 |
| 23 | Huelquen | 03-05-2026 05:30 | 6,2 | 85 | 0 | 0 | 236 | 0 | 1015,7 |
| 22 | Huelquen | 03-05-2026 05:15 | 6,6 | 86 | 0 | 0 | 236 | 0 | 1015,8 |
| 21 | Huelquen | 03-05-2026 05:00 | 6,7 | 84 | 0 | 0 | 236 | 0 | 1016,1 |
| 20 | Huelquen | 03-05-2026 04:45 | 7,6 | 85 | 0 | 0 | 236 | 0 | 1015,7 |
| 19 | Huelquen | 03-05-2026 04:30 | 7,8 | 86 | 0 | 0 | 232 | 0 | 1015,5 |
| 18 | Huelquen | 03-05-2026 04:15 | 7,5 | 85 | 0 | 0 | 142 | 0 | 1015,6 |
| 17 | Huelquen | 03-05-2026 04:00 | 7,6 | 85 | 0 | 0 | 206 | 0 | 1015,8 |
| 16 | Huelquen | 03-05-2026 03:45 | 7,8 | 85 | 0 | 0 | 212 | 0 | 1016,3 |
| 15 | Huelquen | 03-05-2026 03:30 | 7,8 | 85 | 0 | 0 | 148 | 0 | 1016,2 |
| 14 | Huelquen | 03-05-2026 03:15 | 7,8 | 85 | 0 | 0 | 146 | 0 | 1016,3 |
| 13 | Huelquen | 03-05-2026 03:00 | 7,9 | 84 | 0 | 0 | 75 | 0 | 1016,7 |
| 12 | Huelquen | 03-05-2026 02:45 | 8,3 | 84 | 0 | 0 | 75 | 0 | 1016,8 |
| 11 | Huelquen | 03-05-2026 02:30 | 8,3 | 85 | 0 | 0 | 179 | 0 | 1016 |
| 10 | Huelquen | 03-05-2026 02:15 | 8,2 | 84 | 0 | 0 | 186 | 0 | 1016,2 |
| 9 | Huelquen | 03-05-2026 02:00 | 8,3 | 83 | 0 | 0 | 200 | 0 | 1016,4 |
| 8 | Huelquen | 03-05-2026 01:45 | 8,5 | 83 | 0 | 0 | 200 | 0 | 1016,4 |
| 7 | Huelquen | 03-05-2026 01:30 | 8,6 | 82 | 0 | 0 | 200 | 0 | 1016,1 |
| 6 | Huelquen | 03-05-2026 01:15 | 9,3 | 83 | 0 | 0 | 200 | 0 | 1015,7 |
| 5 | Huelquen | 03-05-2026 01:00 | 9,4 | 82 | 0 | 0 | 181 | 0 | 1015,7 |
| 4 | Huelquen | 03-05-2026 00:45 | 9,3 | 84 | 0 | 0 | 181 | 0 | 1016,2 |
| 3 | Huelquen | 03-05-2026 00:30 | 9,1 | 83 | 0 | 0 | 181 | 0 | 1016,5 |
| 2 | Huelquen | 03-05-2026 00:15 | 9,3 | 83 | 0 | 0 | 181 | 0 | 1016,9 |
| 1 | Huelquen | 03-05-2026 00:00 | 9,2 | 82 | 0 | 0 | 203 | 0 | 1016,9 |